sensor_id;sensor_type;location;lat;lon;timestamp;P1;durP1;ratioP1;P2;durP2;ratioP2
15905;SDS011;8051;50.820;4.884;2023-05-10T00:02:06;19.87;;;13.10;;
15905;SDS011;8051;50.820;4.884;2023-05-10T00:04:33;20.90;;;13.37;;
15905;SDS011;8051;50.820;4.884;2023-05-10T00:07:00;20.43;;;13.80;;
15905;SDS011;8051;50.820;4.884;2023-05-10T00:09:27;16.03;;;12.77;;
15905;SDS011;8051;50.820;4.884;2023-05-10T00:11:55;19.17;;;14.30;;
15905;SDS011;8051;50.820;4.884;2023-05-10T00:14:23;22.33;;;14.43;;
15905;SDS011;8051;50.820;4.884;2023-05-10T00:16:50;19.20;;;14.97;;
15905;SDS011;8051;50.820;4.884;2023-05-10T00:19:17;26.37;;;15.90;;
15905;SDS011;8051;50.820;4.884;2023-05-10T00:21:45;24.33;;;15.60;;
15905;SDS011;8051;50.820;4.884;2023-05-10T00:24:12;21.63;;;16.63;;
15905;SDS011;8051;50.820;4.884;2023-05-10T00:26:39;20.77;;;16.47;;
15905;SDS011;8051;50.820;4.884;2023-05-10T00:29:08;26.30;;;16.87;;
15905;SDS011;8051;50.820;4.884;2023-05-10T00:31:36;26.67;;;18.00;;
15905;SDS011;8051;50.820;4.884;2023-05-10T00:34:03;24.93;;;17.23;;
15905;SDS011;8051;50.820;4.884;2023-05-10T00:36:31;30.50;;;16.47;;
15905;SDS011;8051;50.820;4.884;2023-05-10T00:38:58;23.80;;;16.77;;
15905;SDS011;8051;50.820;4.884;2023-05-10T00:41:25;23.07;;;16.97;;
15905;SDS011;8051;50.820;4.884;2023-05-10T00:43:52;20.40;;;15.90;;
15905;SDS011;8051;50.820;4.884;2023-05-10T00:46:21;25.20;;;17.03;;
15905;SDS011;8051;50.820;4.884;2023-05-10T00:48:48;25.83;;;17.40;;
15905;SDS011;8051;50.820;4.884;2023-05-10T00:51:15;24.17;;;15.47;;
15905;SDS011;8051;50.820;4.884;2023-05-10T00:53:44;28.60;;;16.97;;
15905;SDS011;8051;50.820;4.884;2023-05-10T00:56:12;27.77;;;16.80;;
15905;SDS011;8051;50.820;4.884;2023-05-10T00:58:39;25.47;;;15.17;;
15905;SDS011;8051;50.820;4.884;2023-05-10T01:01:07;24.37;;;15.27;;
15905;SDS011;8051;50.820;4.884;2023-05-10T01:03:35;23.83;;;16.77;;
15905;SDS011;8051;50.820;4.884;2023-05-10T01:06:03;23.00;;;15.10;;
15905;SDS011;8051;50.820;4.884;2023-05-10T01:08:30;23.97;;;14.23;;
15905;SDS011;8051;50.820;4.884;2023-05-10T01:10:58;25.60;;;16.17;;
15905;SDS011;8051;50.820;4.884;2023-05-10T01:13:29;28.83;;;15.50;;
15905;SDS011;8051;50.820;4.884;2023-05-10T01:15:59;23.20;;;15.13;;
15905;SDS011;8051;50.820;4.884;2023-05-10T01:18:28;20.67;;;15.67;;
15905;SDS011;8051;50.820;4.884;2023-05-10T01:21:01;26.57;;;15.47;;
15905;SDS011;8051;50.820;4.884;2023-05-10T01:23:45;22.77;;;14.87;;
15905;SDS011;8051;50.820;4.884;2023-05-10T01:26:34;27.57;;;15.23;;
15905;SDS011;8051;50.820;4.884;2023-05-10T01:29:30;24.10;;;16.10;;
15905;SDS011;8051;50.820;4.884;2023-05-10T01:32:20;25.17;;;15.90;;
15905;SDS011;8051;50.820;4.884;2023-05-10T01:34:58;24.60;;;16.03;;
15905;SDS011;8051;50.820;4.884;2023-05-10T01:37:31;28.77;;;15.93;;
15905;SDS011;8051;50.820;4.884;2023-05-10T01:40:08;24.47;;;15.37;;
15905;SDS011;8051;50.820;4.884;2023-05-10T01:42:40;26.37;;;17.53;;
15905;SDS011;8051;50.820;4.884;2023-05-10T01:45:14;29.57;;;17.37;;
15905;SDS011;8051;50.820;4.884;2023-05-10T01:47:48;29.37;;;15.80;;
15905;SDS011;8051;50.820;4.884;2023-05-10T01:50:22;25.90;;;17.33;;
15905;SDS011;8051;50.820;4.884;2023-05-10T01:52:56;28.90;;;16.90;;
15905;SDS011;8051;50.820;4.884;2023-05-10T01:55:26;27.57;;;19.00;;
15905;SDS011;8051;50.820;4.884;2023-05-10T01:57:59;33.53;;;18.37;;
15905;SDS011;8051;50.820;4.884;2023-05-10T02:00:30;28.70;;;19.67;;
15905;SDS011;8051;50.820;4.884;2023-05-10T02:03:01;28.97;;;18.27;;
15905;SDS011;8051;50.820;4.884;2023-05-10T02:05:32;25.33;;;18.10;;
15905;SDS011;8051;50.820;4.884;2023-05-10T02:08:00;31.53;;;20.47;;
15905;SDS011;8051;50.820;4.884;2023-05-10T02:10:29;32.40;;;19.30;;
15905;SDS011;8051;50.820;4.884;2023-05-10T02:12:58;37.00;;;20.43;;
15905;SDS011;8051;50.820;4.884;2023-05-10T02:15:27;33.47;;;20.60;;
15905;SDS011;8051;50.820;4.884;2023-05-10T02:17:55;36.17;;;19.70;;
15905;SDS011;8051;50.820;4.884;2023-05-10T02:20:24;32.10;;;19.63;;
15905;SDS011;8051;50.820;4.884;2023-05-10T02:22:54;28.53;;;19.77;;
15905;SDS011;8051;50.820;4.884;2023-05-10T02:25:22;33.93;;;20.33;;
15905;SDS011;8051;50.820;4.884;2023-05-10T02:27:50;31.37;;;19.10;;
15905;SDS011;8051;50.820;4.884;2023-05-10T02:30:19;36.83;;;19.33;;
15905;SDS011;8051;50.820;4.884;2023-05-10T02:32:47;29.20;;;20.80;;
15905;SDS011;8051;50.820;4.884;2023-05-10T02:35:16;34.13;;;20.23;;
15905;SDS011;8051;50.820;4.884;2023-05-10T02:37:45;31.60;;;21.73;;
15905;SDS011;8051;50.820;4.884;2023-05-10T02:40:14;38.27;;;19.83;;
15905;SDS011;8051;50.820;4.884;2023-05-10T02:42:42;29.40;;;19.83;;
15905;SDS011;8051;50.820;4.884;2023-05-10T02:45:12;35.03;;;21.93;;
15905;SDS011;8051;50.820;4.884;2023-05-10T02:47:41;34.70;;;22.00;;
15905;SDS011;8051;50.820;4.884;2023-05-10T02:50:09;31.57;;;21.07;;
15905;SDS011;8051;50.820;4.884;2023-05-10T02:52:38;33.17;;;21.83;;
15905;SDS011;8051;50.820;4.884;2023-05-10T02:55:11;32.20;;;20.93;;
15905;SDS011;8051;50.820;4.884;2023-05-10T02:57:41;35.63;;;22.87;;
15905;SDS011;8051;50.820;4.884;2023-05-10T03:00:17;33.43;;;21.67;;
15905;SDS011;8051;50.820;4.884;2023-05-10T03:02:45;32.43;;;20.63;;
15905;SDS011;8051;50.820;4.884;2023-05-10T03:05:12;33.57;;;21.67;;
15905;SDS011;8051;50.820;4.884;2023-05-10T03:07:39;29.30;;;20.37;;
15905;SDS011;8051;50.820;4.884;2023-05-10T03:10:06;30.30;;;20.87;;
15905;SDS011;8051;50.820;4.884;2023-05-10T03:12:41;29.30;;;20.57;;
15905;SDS011;8051;50.820;4.884;2023-05-10T03:15:22;30.90;;;20.50;;
15905;SDS011;8051;50.820;4.884;2023-05-10T03:18:01;34.97;;;21.10;;
15905;SDS011;8051;50.820;4.884;2023-05-10T03:20:35;32.00;;;21.07;;
15905;SDS011;8051;50.820;4.884;2023-05-10T03:23:07;31.37;;;21.57;;
15905;SDS011;8051;50.820;4.884;2023-05-10T03:25:39;30.53;;;21.40;;
15905;SDS011;8051;50.820;4.884;2023-05-10T03:28:11;31.13;;;21.73;;
15905;SDS011;8051;50.820;4.884;2023-05-10T03:30:38;30.30;;;21.57;;
15905;SDS011;8051;50.820;4.884;2023-05-10T03:33:06;30.27;;;21.07;;
15905;SDS011;8051;50.820;4.884;2023-05-10T03:35:34;36.30;;;22.53;;
15905;SDS011;8051;50.820;4.884;2023-05-10T03:38:01;33.97;;;21.57;;
15905;SDS011;8051;50.820;4.884;2023-05-10T03:40:28;31.40;;;20.93;;
15905;SDS011;8051;50.820;4.884;2023-05-10T03:42:57;30.70;;;20.60;;
15905;SDS011;8051;50.820;4.884;2023-05-10T03:45:25;35.27;;;20.23;;
15905;SDS011;8051;50.820;4.884;2023-05-10T03:47:52;30.00;;;21.53;;
15905;SDS011;8051;50.820;4.884;2023-05-10T03:50:20;28.27;;;21.80;;
15905;SDS011;8051;50.820;4.884;2023-05-10T03:52:48;33.57;;;21.57;;
15905;SDS011;8051;50.820;4.884;2023-05-10T03:55:15;28.70;;;21.17;;
15905;SDS011;8051;50.820;4.884;2023-05-10T03:57:43;29.30;;;20.67;;
15905;SDS011;8051;50.820;4.884;2023-05-10T04:00:11;27.40;;;19.73;;
15905;SDS011;8051;50.820;4.884;2023-05-10T04:02:40;28.27;;;20.00;;
15905;SDS011;8051;50.820;4.884;2023-05-10T04:05:08;30.63;;;21.90;;
15905;SDS011;8051;50.820;4.884;2023-05-10T04:07:35;27.97;;;20.60;;
15905;SDS011;8051;50.820;4.884;2023-05-10T04:10:03;24.47;;;19.40;;
15905;SDS011;8051;50.820;4.884;2023-05-10T04:12:30;33.30;;;21.90;;
15905;SDS011;8051;50.820;4.884;2023-05-10T04:14:57;34.70;;;21.50;;
15905;SDS011;8051;50.820;4.884;2023-05-10T04:17:25;34.13;;;22.10;;
15905;SDS011;8051;50.820;4.884;2023-05-10T04:19:54;35.40;;;22.77;;
15905;SDS011;8051;50.820;4.884;2023-05-10T04:22:22;32.70;;;23.07;;
15905;SDS011;8051;50.820;4.884;2023-05-10T04:24:49;33.20;;;22.50;;
15905;SDS011;8051;50.820;4.884;2023-05-10T04:27:16;36.90;;;22.47;;
15905;SDS011;8051;50.820;4.884;2023-05-10T04:29:43;32.37;;;22.03;;
15905;SDS011;8051;50.820;4.884;2023-05-10T04:32:10;34.23;;;20.93;;
15905;SDS011;8051;50.820;4.884;2023-05-10T04:34:37;33.60;;;20.90;;
15905;SDS011;8051;50.820;4.884;2023-05-10T04:37:05;29.20;;;20.27;;
15905;SDS011;8051;50.820;4.884;2023-05-10T04:39:32;30.80;;;20.00;;
15905;SDS011;8051;50.820;4.884;2023-05-10T04:42:00;28.60;;;20.43;;
15905;SDS011;8051;50.820;4.884;2023-05-10T04:44:28;35.77;;;20.97;;
15905;SDS011;8051;50.820;4.884;2023-05-10T04:46:55;31.57;;;20.60;;
15905;SDS011;8051;50.820;4.884;2023-05-10T04:49:22;29.80;;;22.43;;
15905;SDS011;8051;50.820;4.884;2023-05-10T04:51:49;32.63;;;21.50;;
15905;SDS011;8051;50.820;4.884;2023-05-10T04:54:18;32.03;;;22.80;;
15905;SDS011;8051;50.820;4.884;2023-05-10T04:56:45;32.00;;;22.83;;
15905;SDS011;8051;50.820;4.884;2023-05-10T04:59:12;31.77;;;21.43;;
15905;SDS011;8051;50.820;4.884;2023-05-10T05:01:39;35.17;;;22.30;;
15905;SDS011;8051;50.820;4.884;2023-05-10T05:04:06;33.70;;;20.93;;
15905;SDS011;8051;50.820;4.884;2023-05-10T05:06:33;39.67;;;22.93;;
15905;SDS011;8051;50.820;4.884;2023-05-10T05:09:00;35.77;;;23.27;;
15905;SDS011;8051;50.820;4.884;2023-05-10T05:11:28;33.87;;;22.07;;
15905;SDS011;8051;50.820;4.884;2023-05-10T05:13:56;37.90;;;23.73;;
15905;SDS011;8051;50.820;4.884;2023-05-10T05:16:24;38.90;;;23.23;;
15905;SDS011;8051;50.820;4.884;2023-05-10T05:18:51;36.40;;;23.60;;
15905;SDS011;8051;50.820;4.884;2023-05-10T05:21:19;36.57;;;24.57;;
15905;SDS011;8051;50.820;4.884;2023-05-10T05:23:46;34.57;;;23.60;;
15905;SDS011;8051;50.820;4.884;2023-05-10T05:26:13;44.03;;;26.03;;
15905;SDS011;8051;50.820;4.884;2023-05-10T05:28:42;40.97;;;25.50;;
15905;SDS011;8051;50.820;4.884;2023-05-10T05:31:09;44.80;;;25.33;;
15905;SDS011;8051;50.820;4.884;2023-05-10T05:33:36;43.57;;;26.53;;
15905;SDS011;8051;50.820;4.884;2023-05-10T05:36:04;38.80;;;25.63;;
15905;SDS011;8051;50.820;4.884;2023-05-10T05:38:32;40.07;;;25.70;;
15905;SDS011;8051;50.820;4.884;2023-05-10T05:40:59;39.10;;;25.67;;
15905;SDS011;8051;50.820;4.884;2023-05-10T05:43:26;44.90;;;28.37;;
15905;SDS011;8051;50.820;4.884;2023-05-10T05:45:55;40.50;;;25.90;;
15905;SDS011;8051;50.820;4.884;2023-05-10T05:48:22;43.87;;;28.07;;
15905;SDS011;8051;50.820;4.884;2023-05-10T05:50:50;45.90;;;29.37;;
15905;SDS011;8051;50.820;4.884;2023-05-10T05:53:21;39.83;;;27.57;;
15905;SDS011;8051;50.820;4.884;2023-05-10T05:55:51;42.17;;;27.53;;
15905;SDS011;8051;50.820;4.884;2023-05-10T05:58:19;44.03;;;29.00;;
15905;SDS011;8051;50.820;4.884;2023-05-10T06:00:47;38.17;;;28.30;;
15905;SDS011;8051;50.820;4.884;2023-05-10T06:03:15;46.33;;;28.67;;
15905;SDS011;8051;50.820;4.884;2023-05-10T06:05:42;46.00;;;28.30;;
15905;SDS011;8051;50.820;4.884;2023-05-10T06:08:10;41.30;;;28.57;;
15905;SDS011;8051;50.820;4.884;2023-05-10T06:10:37;44.10;;;28.97;;
15905;SDS011;8051;50.820;4.884;2023-05-10T06:13:04;44.10;;;30.60;;
15905;SDS011;8051;50.820;4.884;2023-05-10T06:15:31;41.73;;;29.83;;
15905;SDS011;8051;50.820;4.884;2023-05-10T06:17:58;42.87;;;29.97;;
15905;SDS011;8051;50.820;4.884;2023-05-10T06:20:27;50.03;;;32.47;;
15905;SDS011;8051;50.820;4.884;2023-05-10T06:22:56;46.73;;;30.10;;
15905;SDS011;8051;50.820;4.884;2023-05-10T06:25:23;45.83;;;28.87;;
15905;SDS011;8051;50.820;4.884;2023-05-10T06:27:50;38.37;;;27.50;;
15905;SDS011;8051;50.820;4.884;2023-05-10T06:30:22;53.57;;;28.83;;
15905;SDS011;8051;50.820;4.884;2023-05-10T06:32:52;39.23;;;27.17;;
15905;SDS011;8051;50.820;4.884;2023-05-10T06:35:20;40.20;;;28.30;;
15905;SDS011;8051;50.820;4.884;2023-05-10T06:37:49;36.20;;;28.00;;
15905;SDS011;8051;50.820;4.884;2023-05-10T06:40:17;30.20;;;23.83;;
15905;SDS011;8051;50.820;4.884;2023-05-10T06:42:45;18.10;;;15.97;;
15905;SDS011;8051;50.820;4.884;2023-05-10T06:45:13;12.10;;;10.90;;
15905;SDS011;8051;50.820;4.884;2023-05-10T06:47:40;9.00;;;8.20;;
15905;SDS011;8051;50.820;4.884;2023-05-10T06:50:08;8.63;;;7.93;;
15905;SDS011;8051;50.820;4.884;2023-05-10T06:52:36;7.03;;;6.63;;
15905;SDS011;8051;50.820;4.884;2023-05-10T06:55:06;7.17;;;6.77;;
15905;SDS011;8051;50.820;4.884;2023-05-10T06:57:34;6.77;;;6.37;;
15905;SDS011;8051;50.820;4.884;2023-05-10T07:00:02;7.10;;;6.70;;
15905;SDS011;8051;50.820;4.884;2023-05-10T07:02:30;7.60;;;7.10;;
15905;SDS011;8051;50.820;4.884;2023-05-10T07:04:58;6.27;;;5.87;;
15905;SDS011;8051;50.820;4.884;2023-05-10T07:07:25;6.53;;;6.03;;
15905;SDS011;8051;50.820;4.884;2023-05-10T07:09:52;7.63;;;7.13;;
15905;SDS011;8051;50.820;4.884;2023-05-10T07:12:23;7.77;;;7.27;;
15905;SDS011;8051;50.820;4.884;2023-05-10T07:14:50;6.60;;;6.20;;
15905;SDS011;8051;50.820;4.884;2023-05-10T07:17:18;8.33;;;7.83;;
15905;SDS011;8051;50.820;4.884;2023-05-10T07:19:45;8.40;;;7.80;;
15905;SDS011;8051;50.820;4.884;2023-05-10T07:22:13;7.90;;;7.50;;
15905;SDS011;8051;50.820;4.884;2023-05-10T07:24:40;8.40;;;7.90;;
15905;SDS011;8051;50.820;4.884;2023-05-10T07:27:08;8.77;;;8.37;;
15905;SDS011;8051;50.820;4.884;2023-05-10T07:29:37;8.20;;;7.70;;
15905;SDS011;8051;50.820;4.884;2023-05-10T07:32:05;9.77;;;9.07;;
15905;SDS011;8051;50.820;4.884;2023-05-10T07:34:33;10.90;;;10.20;;
15905;SDS011;8051;50.820;4.884;2023-05-10T07:37:00;9.13;;;8.63;;
15905;SDS011;8051;50.820;4.884;2023-05-10T07:39:28;11.23;;;10.43;;
15905;SDS011;8051;50.820;4.884;2023-05-10T07:41:55;11.33;;;10.43;;
15905;SDS011;8051;50.820;4.884;2023-05-10T07:44:23;11.67;;;10.83;;
15905;SDS011;8051;50.820;4.884;2023-05-10T07:46:52;11.57;;;10.73;;
15905;SDS011;8051;50.820;4.884;2023-05-10T07:49:19;13.43;;;12.47;;
15905;SDS011;8051;50.820;4.884;2023-05-10T07:51:46;15.57;;;12.20;;
15905;SDS011;8051;50.820;4.884;2023-05-10T07:54:14;12.27;;;11.53;;
15905;SDS011;8051;50.820;4.884;2023-05-10T07:56:41;13.40;;;12.60;;
15905;SDS011;8051;50.820;4.884;2023-05-10T07:59:14;12.60;;;11.90;;
15905;SDS011;8051;50.820;4.884;2023-05-10T08:01:42;12.60;;;11.60;;
15905;SDS011;8051;50.820;4.884;2023-05-10T08:04:11;10.80;;;10.30;;
15905;SDS011;8051;50.820;4.884;2023-05-10T08:06:38;11.67;;;10.97;;
15905;SDS011;8051;50.820;4.884;2023-05-10T08:09:06;12.30;;;11.50;;
15905;SDS011;8051;50.820;4.884;2023-05-10T08:11:33;12.20;;;11.30;;
15905;SDS011;8051;50.820;4.884;2023-05-10T08:14:00;12.20;;;11.60;;
15905;SDS011;8051;50.820;4.884;2023-05-10T08:16:27;11.87;;;11.27;;
15905;SDS011;8051;50.820;4.884;2023-05-10T08:18:54;12.03;;;11.33;;
15905;SDS011;8051;50.820;4.884;2023-05-10T08:21:22;12.57;;;11.67;;
15905;SDS011;8051;50.820;4.884;2023-05-10T08:23:49;12.73;;;11.93;;
15905;SDS011;8051;50.820;4.884;2023-05-10T08:26:17;13.80;;;12.90;;
15905;SDS011;8051;50.820;4.884;2023-05-10T08:28:44;13.77;;;12.70;;
15905;SDS011;8051;50.820;4.884;2023-05-10T08:31:11;15.27;;;14.07;;
15905;SDS011;8051;50.820;4.884;2023-05-10T08:33:38;16.10;;;14.77;;
15905;SDS011;8051;50.820;4.884;2023-05-10T08:36:05;16.27;;;14.97;;
15905;SDS011;8051;50.820;4.884;2023-05-10T08:38:34;15.30;;;13.83;;
15905;SDS011;8051;50.820;4.884;2023-05-10T08:41:03;14.23;;;13.27;;
15905;SDS011;8051;50.820;4.884;2023-05-10T08:43:31;15.10;;;13.83;;
15905;SDS011;8051;50.820;4.884;2023-05-10T08:45:59;14.97;;;13.67;;
15905;SDS011;8051;50.820;4.884;2023-05-10T08:48:28;17.23;;;15.73;;
15905;SDS011;8051;50.820;4.884;2023-05-10T08:50:56;15.60;;;14.50;;
15905;SDS011;8051;50.820;4.884;2023-05-10T08:53:27;14.67;;;13.40;;
15905;SDS011;8051;50.820;4.884;2023-05-10T08:55:58;16.40;;;15.13;;
15905;SDS011;8051;50.820;4.884;2023-05-10T08:58:25;15.97;;;14.67;;
15905;SDS011;8051;50.820;4.884;2023-05-10T09:00:52;15.83;;;14.50;;
15905;SDS011;8051;50.820;4.884;2023-05-10T09:03:20;15.53;;;14.20;;
15905;SDS011;8051;50.820;4.884;2023-05-10T09:05:47;15.00;;;13.63;;
15905;SDS011;8051;50.820;4.884;2023-05-10T09:08:15;14.70;;;13.70;;
15905;SDS011;8051;50.820;4.884;2023-05-10T09:10:42;14.53;;;13.43;;
15905;SDS011;8051;50.820;4.884;2023-05-10T09:13:13;14.70;;;13.40;;
15905;SDS011;8051;50.820;4.884;2023-05-10T09:15:41;14.40;;;13.30;;
15905;SDS011;8051;50.820;4.884;2023-05-10T09:18:09;14.23;;;13.13;;
15905;SDS011;8051;50.820;4.884;2023-05-10T09:20:36;15.67;;;14.33;;
15905;SDS011;8051;50.820;4.884;2023-05-10T09:23:04;14.47;;;13.47;;
15905;SDS011;8051;50.820;4.884;2023-05-10T09:25:31;15.37;;;14.37;;
15905;SDS011;8051;50.820;4.884;2023-05-10T09:27:59;13.47;;;12.40;;
15905;SDS011;8051;50.820;4.884;2023-05-10T09:30:28;13.57;;;12.67;;
15905;SDS011;8051;50.820;4.884;2023-05-10T09:32:57;13.20;;;12.30;;
15905;SDS011;8051;50.820;4.884;2023-05-10T09:35:25;13.53;;;12.53;;
15905;SDS011;8051;50.820;4.884;2023-05-10T09:37:54;11.80;;;11.00;;
15905;SDS011;8051;50.820;4.884;2023-05-10T09:40:23;11.30;;;10.40;;
15905;SDS011;8051;50.820;4.884;2023-05-10T09:42:51;12.37;;;11.43;;
15905;SDS011;8051;50.820;4.884;2023-05-10T09:45:20;12.87;;;12.03;;
15905;SDS011;8051;50.820;4.884;2023-05-10T09:47:49;12.97;;;11.97;;
15905;SDS011;8051;50.820;4.884;2023-05-10T09:50:16;11.60;;;10.70;;
15905;SDS011;8051;50.820;4.884;2023-05-10T09:52:47;9.97;;;9.17;;
15905;SDS011;8051;50.820;4.884;2023-05-10T09:55:16;10.03;;;9.23;;
15905;SDS011;8051;50.820;4.884;2023-05-10T09:57:45;8.63;;;8.13;;
15905;SDS011;8051;50.820;4.884;2023-05-10T10:00:16;7.97;;;7.57;;
15905;SDS011;8051;50.820;4.884;2023-05-10T10:02:45;9.00;;;8.40;;
15905;SDS011;8051;50.820;4.884;2023-05-10T10:05:14;8.50;;;8.00;;
15905;SDS011;8051;50.820;4.884;2023-05-10T10:07:42;7.77;;;7.37;;
15905;SDS011;8051;50.820;4.884;2023-05-10T10:10:10;7.07;;;6.67;;
15905;SDS011;8051;50.820;4.884;2023-05-10T10:12:38;7.97;;;7.47;;
15905;SDS011;8051;50.820;4.884;2023-05-10T10:15:07;7.67;;;7.07;;
15905;SDS011;8051;50.820;4.884;2023-05-10T10:17:35;7.67;;;7.23;;
15905;SDS011;8051;50.820;4.884;2023-05-10T10:20:04;7.87;;;7.47;;
15905;SDS011;8051;50.820;4.884;2023-05-10T10:22:33;7.60;;;7.20;;
15905;SDS011;8051;50.820;4.884;2023-05-10T10:25:01;8.10;;;7.60;;
15905;SDS011;8051;50.820;4.884;2023-05-10T10:27:30;7.10;;;6.60;;
15905;SDS011;8051;50.820;4.884;2023-05-10T10:30:08;7.53;;;7.03;;
15905;SDS011;8051;50.820;4.884;2023-05-10T10:35:38;8.73;;;7.90;;
15905;SDS011;8051;50.820;4.884;2023-05-10T10:38:08;6.70;;;6.20;;
15905;SDS011;8051;50.820;4.884;2023-05-10T10:40:35;7.40;;;6.90;;
15905;SDS011;8051;50.820;4.884;2023-05-10T10:43:22;8.10;;;7.70;;
15905;SDS011;8051;50.820;4.884;2023-05-10T10:46:12;7.90;;;7.50;;
15905;SDS011;8051;50.820;4.884;2023-05-10T10:48:40;6.87;;;6.47;;
15905;SDS011;8051;50.820;4.884;2023-05-10T10:51:08;8.10;;;7.50;;
15905;SDS011;8051;50.820;4.884;2023-05-10T10:53:38;7.40;;;7.00;;
15905;SDS011;8051;50.820;4.884;2023-05-10T10:56:06;8.50;;;8.00;;
15905;SDS011;8051;50.820;4.884;2023-05-10T10:58:35;9.30;;;8.70;;
15905;SDS011;8051;50.820;4.884;2023-05-10T11:01:09;8.20;;;7.80;;
15905;SDS011;8051;50.820;4.884;2023-05-10T11:03:41;7.97;;;7.47;;
15905;SDS011;8051;50.820;4.884;2023-05-10T11:06:31;9.17;;;8.67;;
15905;SDS011;8051;50.820;4.884;2023-05-10T11:09:00;8.47;;;7.97;;
15905;SDS011;8051;50.820;4.884;2023-05-10T11:11:32;8.27;;;7.77;;
15905;SDS011;8051;50.820;4.884;2023-05-10T11:14:02;9.03;;;8.53;;
15905;SDS011;8051;50.820;4.884;2023-05-10T11:16:40;10.33;;;9.73;;
15905;SDS011;8051;50.820;4.884;2023-05-10T11:19:10;11.23;;;10.63;;
15905;SDS011;8051;50.820;4.884;2023-05-10T11:21:44;10.63;;;10.13;;
15905;SDS011;8051;50.820;4.884;2023-05-10T11:24:14;11.73;;;11.13;;
15905;SDS011;8051;50.820;4.884;2023-05-10T11:26:41;11.60;;;11.10;;
15905;SDS011;8051;50.820;4.884;2023-05-10T11:29:08;11.27;;;10.77;;
15905;SDS011;8051;50.820;4.884;2023-05-10T11:31:41;12.10;;;11.50;;
15905;SDS011;8051;50.820;4.884;2023-05-10T11:34:09;12.03;;;11.43;;
15905;SDS011;8051;50.820;4.884;2023-05-10T11:36:36;13.43;;;12.73;;
15905;SDS011;8051;50.820;4.884;2023-05-10T11:39:03;14.40;;;13.70;;
15905;SDS011;8051;50.820;4.884;2023-05-10T11:41:32;14.10;;;13.30;;
15905;SDS011;8051;50.820;4.884;2023-05-10T11:43:59;14.27;;;13.57;;
15905;SDS011;8051;50.820;4.884;2023-05-10T11:46:27;14.80;;;14.00;;
15905;SDS011;8051;50.820;4.884;2023-05-10T11:48:55;15.43;;;14.70;;
15905;SDS011;8051;50.820;4.884;2023-05-10T11:51:26;14.73;;;14.00;;
15905;SDS011;8051;50.820;4.884;2023-05-10T11:53:54;14.13;;;13.43;;
15905;SDS011;8051;50.820;4.884;2023-05-10T11:56:22;15.40;;;14.60;;
15905;SDS011;8051;50.820;4.884;2023-05-10T11:58:55;16.00;;;15.10;;
15905;SDS011;8051;50.820;4.884;2023-05-10T12:01:23;13.47;;;12.77;;
15905;SDS011;8051;50.820;4.884;2023-05-10T12:03:51;13.93;;;13.03;;
15905;SDS011;8051;50.820;4.884;2023-05-10T12:06:20;15.20;;;14.40;;
15905;SDS011;8051;50.820;4.884;2023-05-10T12:08:48;14.53;;;13.63;;
15905;SDS011;8051;50.820;4.884;2023-05-10T12:11:17;14.60;;;13.80;;
15905;SDS011;8051;50.820;4.884;2023-05-10T12:13:46;14.67;;;13.67;;
15905;SDS011;8051;50.820;4.884;2023-05-10T12:16:15;14.40;;;13.70;;
15905;SDS011;8051;50.820;4.884;2023-05-10T12:18:43;16.17;;;15.37;;
15905;SDS011;8051;50.820;4.884;2023-05-10T12:21:10;16.37;;;15.47;;
15905;SDS011;8051;50.820;4.884;2023-05-10T12:23:38;16.83;;;16.03;;
15905;SDS011;8051;50.820;4.884;2023-05-10T12:26:05;17.40;;;16.50;;
15905;SDS011;8051;50.820;4.884;2023-05-10T12:28:35;17.50;;;16.60;;
15905;SDS011;8051;50.820;4.884;2023-05-10T12:31:02;18.10;;;17.20;;
15905;SDS011;8051;50.820;4.884;2023-05-10T12:33:36;18.57;;;17.50;;
15905;SDS011;8051;50.820;4.884;2023-05-10T12:36:06;17.40;;;16.50;;
15905;SDS011;8051;50.820;4.884;2023-05-10T12:38:35;19.03;;;18.03;;
15905;SDS011;8051;50.820;4.884;2023-05-10T12:41:03;18.60;;;17.50;;
15905;SDS011;8051;50.820;4.884;2023-05-10T12:43:32;18.00;;;17.00;;
15905;SDS011;8051;50.820;4.884;2023-05-10T12:46:03;19.00;;;17.90;;
15905;SDS011;8051;50.820;4.884;2023-05-10T12:48:31;20.03;;;18.93;;
15905;SDS011;8051;50.820;4.884;2023-05-10T12:51:00;20.40;;;19.30;;
15905;SDS011;8051;50.820;4.884;2023-05-10T12:53:28;19.90;;;18.80;;
15905;SDS011;8051;50.820;4.884;2023-05-10T12:55:55;21.00;;;19.80;;
15905;SDS011;8051;50.820;4.884;2023-05-10T12:58:22;20.50;;;19.40;;
15905;SDS011;8051;50.820;4.884;2023-05-10T13:00:50;19.80;;;18.60;;
15905;SDS011;8051;50.820;4.884;2023-05-10T13:03:17;20.80;;;19.60;;
15905;SDS011;8051;50.820;4.884;2023-05-10T13:05:45;19.53;;;18.50;;
15905;SDS011;8051;50.820;4.884;2023-05-10T13:08:13;20.23;;;19.13;;
15905;SDS011;8051;50.820;4.884;2023-05-10T13:10:40;21.50;;;20.10;;
15905;SDS011;8051;50.820;4.884;2023-05-10T13:13:08;20.93;;;19.73;;
15905;SDS011;8051;50.820;4.884;2023-05-10T13:15:35;21.07;;;19.77;;
15905;SDS011;8051;50.820;4.884;2023-05-10T13:18:02;21.53;;;20.23;;
15905;SDS011;8051;50.820;4.884;2023-05-10T13:20:29;21.93;;;20.63;;
15905;SDS011;8051;50.820;4.884;2023-05-10T13:22:56;21.63;;;20.43;;
15905;SDS011;8051;50.820;4.884;2023-05-10T13:25:25;21.00;;;19.80;;
15905;SDS011;8051;50.820;4.884;2023-05-10T13:27:52;20.13;;;18.93;;
15905;SDS011;8051;50.820;4.884;2023-05-10T13:30:19;19.47;;;18.37;;
15905;SDS011;8051;50.820;4.884;2023-05-10T13:32:46;19.23;;;18.13;;
15905;SDS011;8051;50.820;4.884;2023-05-10T13:35:13;20.20;;;19.00;;
15905;SDS011;8051;50.820;4.884;2023-05-10T13:37:40;21.33;;;20.07;;
15905;SDS011;8051;50.820;4.884;2023-05-10T13:40:08;20.93;;;19.73;;
15905;SDS011;8051;50.820;4.884;2023-05-10T13:42:37;20.10;;;19.00;;
15905;SDS011;8051;50.820;4.884;2023-05-10T13:45:05;20.83;;;19.60;;
15905;SDS011;8051;50.820;4.884;2023-05-10T13:47:32;21.07;;;19.90;;
15905;SDS011;8051;50.820;4.884;2023-05-10T13:49:59;20.60;;;19.50;;
15905;SDS011;8051;50.820;4.884;2023-05-10T13:52:27;21.27;;;20.07;;
15905;SDS011;8051;50.820;4.884;2023-05-10T13:54:54;21.13;;;19.77;;
15905;SDS011;8051;50.820;4.884;2023-05-10T13:57:21;22.00;;;20.80;;
15905;SDS011;8051;50.820;4.884;2023-05-10T13:59:50;22.57;;;21.27;;
15905;SDS011;8051;50.820;4.884;2023-05-10T14:02:17;21.67;;;20.30;;
15905;SDS011;8051;50.820;4.884;2023-05-10T14:04:45;22.60;;;21.30;;
15905;SDS011;8051;50.820;4.884;2023-05-10T14:07:12;22.83;;;21.40;;
15905;SDS011;8051;50.820;4.884;2023-05-10T14:09:39;23.00;;;21.57;;
15905;SDS011;8051;50.820;4.884;2023-05-10T14:12:06;23.27;;;21.87;;
15905;SDS011;8051;50.820;4.884;2023-05-10T14:14:33;23.43;;;21.83;;
15905;SDS011;8051;50.820;4.884;2023-05-10T14:17:01;25.37;;;23.53;;
15905;SDS011;8051;50.820;4.884;2023-05-10T14:19:28;23.73;;;22.23;;
15905;SDS011;8051;50.820;4.884;2023-05-10T14:21:57;22.13;;;20.73;;
15905;SDS011;8051;50.820;4.884;2023-05-10T14:24:24;25.33;;;23.53;;
15905;SDS011;8051;50.820;4.884;2023-05-10T14:26:51;25.27;;;23.77;;
15905;SDS011;8051;50.820;4.884;2023-05-10T14:29:19;24.27;;;22.77;;
15905;SDS011;8051;50.820;4.884;2023-05-10T14:31:47;24.80;;;23.00;;
15905;SDS011;8051;50.820;4.884;2023-05-10T14:34:15;23.77;;;22.17;;
15905;SDS011;8051;50.820;4.884;2023-05-10T14:36:42;26.50;;;24.70;;
15905;SDS011;8051;50.820;4.884;2023-05-10T14:39:09;26.03;;;24.13;;
15905;SDS011;8051;50.820;4.884;2023-05-10T14:41:37;26.57;;;24.77;;
15905;SDS011;8051;50.820;4.884;2023-05-10T14:44:06;24.30;;;22.70;;
15905;SDS011;8051;50.820;4.884;2023-05-10T14:46:32;27.23;;;25.33;;
15905;SDS011;8051;50.820;4.884;2023-05-10T14:49:00;26.37;;;24.63;;
15905;SDS011;8051;50.820;4.884;2023-05-10T14:51:28;26.13;;;24.33;;